Time;durP1;ratioP1;P1;durP2;ratioP2;P2;SDS_P1;SDS_P2;PMS_P1;PMS_P2;Temp;Humidity;BMP_temperature;BMP_pressure;BME280_temperature;BME280_humidity;BME280_pressure;Samples;Min_cycle;Max_cycle;Signal;HPM_P1;HPM_P2
2021/07/04 00:00:39;;;;;;;0.20;0.20;;;20.00;72.10;;;;;;5052241;28;20536;-66
2021/07/04 00:03:06;;;;;;;0.10;0.10;;;20.00;72.30;;;;;;5052094;28;20150;-66
2021/07/04 00:05:36;;;;;;;0.35;0.35;;;20.00;72.50;;;;;;5046743;28;20068;-66
2021/07/04 00:08:03;;;;;;;0.20;0.20;;;20.00;72.90;;;;;;5049340;28;20049;-66
2021/07/04 00:10:34;;;;;;;0.20;0.20;;;19.90;72.80;;;;;;5048739;28;20128;-66
2021/07/04 00:13:00;;;;;;;0.30;0.20;;;19.90;73.50;;;;;;5048352;28;20058;-66
2021/07/04 00:15:30;;;;;;;0.20;0.20;;;19.80;73.70;;;;;;5052151;28;20048;-66
2021/07/04 00:17:56;;;;;;;0.35;0.30;;;19.80;74.10;;;;;;5051751;28;20130;-66
2021/07/04 00:20:23;;;;;;;0.22;0.22;;;19.80;74.70;;;;;;5052440;28;20134;-66
2021/07/04 00:22:56;;;;;;;0.40;0.35;;;19.70;75.00;;;;;;5052266;28;20056;-66
2021/07/04 00:25:25;;;;;;;0.38;0.25;;;19.70;75.40;;;;;;5033908;28;20128;-66
2021/07/04 00:27:53;;;;;;;0.20;0.17;;;19.60;75.50;;;;;;5055198;28;20424;-66
2021/07/04 00:30:20;;;;;;;0.30;0.30;;;19.70;75.80;;;;;;5056228;28;20132;-66
2021/07/04 00:32:46;;;;;;;0.20;0.20;;;19.60;76.00;;;;;;5052223;28;20045;-66
2021/07/04 00:35:14;;;;;;;0.30;0.30;;;19.60;76.10;;;;;;5043279;28;20480;-66
2021/07/04 00:37:41;;;;;;;0.30;0.30;;;19.60;76.10;;;;;;5055604;28;20053;-66
2021/07/04 00:40:09;;;;;;;0.22;0.22;;;19.70;76.10;;;;;;5055883;28;20174;-66
2021/07/04 00:42:37;;;;;;;0.47;0.47;;;19.70;76.40;;;;;;5055998;28;20098;-66
2021/07/04 00:45:09;;;;;;;0.30;0.30;;;19.60;76.90;;;;;;5054941;28;20041;-66
2021/07/04 00:47:36;;;;;;;0.40;0.35;;;19.60;76.90;;;;;;5055811;28;20055;-66
2021/07/04 00:50:04;;;;;;;0.10;0.10;;;19.50;76.90;;;;;;5055627;28;20045;-66
2021/07/04 00:52:31;;;;;;;0.30;0.30;;;19.60;76.90;;;;;;5055734;28;20068;-66
2021/07/04 00:54:57;;;;;;;0.38;0.38;;;19.60;76.90;;;;;;5055728;28;20049;-66
2021/07/04 00:57:25;;;;;;;0.30;0.30;;;19.60;76.90;;;;;;5055955;28;20187;-66
2021/07/04 00:59:51;;;;;;;0.50;0.50;;;19.50;76.80;;;;;;5055350;28;20045;-66
2021/07/04 01:02:18;;;;;;;0.32;0.30;;;19.50;76.90;;;;;;5055606;28;20163;-66
2021/07/04 01:04:45;;;;;;;0.10;0.10;;;19.60;76.90;;;;;;5055453;28;20047;-66
2021/07/04 01:07:14;;;;;;;0.20;0.20;;;19.50;76.80;;;;;;5055514;28;20045;-66
2021/07/04 01:09:41;;;;;;;0.35;0.30;;;19.60;77.00;;;;;;5048317;28;20114;-66
2021/07/04 01:12:09;;;;;;;0.30;0.30;;;19.50;77.10;;;;;;5054821;28;20391;-66
2021/07/04 01:14:36;;;;;;;0.38;0.30;;;19.50;77.10;;;;;;5054449;28;20083;-66
2021/07/04 01:17:03;;;;;;;0.20;0.20;;;19.50;77.20;;;;;;5052647;28;20071;-66
2021/07/04 01:19:29;;;;;;;0.28;0.28;;;19.50;77.10;;;;;;5054675;28;20048;-66
2021/07/04 01:21:57;;;;;;;0.45;0.38;;;19.50;77.00;;;;;;5048811;28;20052;-66
2021/07/04 01:24:24;;;;;;;0.30;0.30;;;19.50;77.10;;;;;;5046876;28;20194;-66
2021/07/04 01:26:51;;;;;;;0.75;0.38;;;19.50;76.90;;;;;;5055137;28;20048;-66
2021/07/04 01:29:18;;;;;;;0.32;0.32;;;19.50;77.00;;;;;;5054743;28;20126;-66
2021/07/04 01:31:44;;;;;;;0.40;0.40;;;19.60;78.00;;;;;;5054728;28;20500;-66
2021/07/04 01:34:11;;;;;;;0.28;0.28;;;19.50;77.00;;;;;;5054790;28;20131;-66
2021/07/04 01:36:38;;;;;;;0.28;0.28;;;19.50;77.00;;;;;;5054147;28;20401;-66
2021/07/04 01:39:05;;;;;;;0.20;0.20;;;19.50;76.90;;;;;;5054275;28;20590;-66
2021/07/04 01:41:33;;;;;;;0.20;0.20;;;19.60;76.80;;;;;;5054549;28;20049;-66
2021/07/04 01:44:00;;;;;;;0.50;0.35;;;19.60;76.90;;;;;;5054834;28;20056;-66
2021/07/04 01:46:26;;;;;;;0.30;0.30;;;19.60;76.80;;;;;;5054607;28;20174;-66
2021/07/04 01:48:53;;;;;;;0.43;0.40;;;19.60;76.70;;;;;;5054661;28;20048;-66
2021/07/04 01:51:19;;;;;;;0.43;0.43;;;19.50;77.10;;;;;;5054654;28;20049;-66
2021/07/04 01:53:46;;;;;;;0.13;0.13;;;19.50;77.50;;;;;;5053417;28;20055;-66
2021/07/04 01:56:12;;;;;;;0.20;0.20;;;19.50;77.50;;;;;;5050010;28;20068;-66
2021/07/04 01:58:41;;;;;;;0.20;0.20;;;19.50;77.40;;;;;;5054417;28;20056;-66
2021/07/04 02:01:08;;;;;;;0.35;0.35;;;19.50;77.60;;;;;;5054344;28;20045;-66
2021/07/04 02:03:34;;;;;;;0.15;0.15;;;19.40;77.50;;;;;;5054250;28;20056;-66
2021/07/04 02:06:03;;;;;;;0.40;0.40;;;19.50;77.50;;;;;;5051817;28;20440;-65
2021/07/04 02:08:29;;;;;;;0.45;0.45;;;19.50;77.70;;;;;;5054466;28;20056;-66
2021/07/04 02:10:56;;;;;;;0.10;0.10;;;19.40;77.60;;;;;;5053961;28;20048;-66
2021/07/04 02:13:23;;;;;;;0.20;0.20;;;19.40;77.70;;;;;;5053867;28;20059;-66
2021/07/04 02:15:50;;;;;;;0.40;0.40;;;19.40;77.90;;;;;;5053880;28;20116;-66
2021/07/04 02:18:17;;;;;;;0.13;0.13;;;19.30;77.90;;;;;;5054048;28;20084;-66
2021/07/04 02:20:50;;;;;;;0.30;0.30;;;19.40;77.90;;;;;;5054181;28;20507;-66
2021/07/04 02:23:19;;;;;;;0.30;0.30;;;19.40;78.80;;;;;;5053997;28;20124;-66
2021/07/04 02:25:48;;;;;;;0.20;0.20;;;19.40;77.80;;;;;;5053698;28;20120;-66
2021/07/04 02:28:17;;;;;;;0.28;0.15;;;19.40;77.60;;;;;;5053969;28;20044;-66
2021/07/04 02:30:44;;;;;;;0.30;0.30;;;19.40;77.30;;;;;;5053157;28;20040;-66
2021/07/04 02:33:13;;;;;;;0.17;0.17;;;19.40;77.20;;;;;;5053323;28;20045;-66
2021/07/04 02:35:42;;;;;;;0.50;0.20;;;19.40;77.10;;;;;;5053624;28;20045;-66
2021/07/04 02:38:09;;;;;;;0.28;0.20;;;19.40;77.00;;;;;;5053585;28;20120;-66
2021/07/04 02:40:36;;;;;;;0.20;0.20;;;19.50;77.00;;;;;;5053795;28;20048;-66
2021/07/04 02:43:04;;;;;;;0.10;0.10;;;19.40;76.90;;;;;;5053502;28;20045;-66
2021/07/04 02:45:31;;;;;;;0.20;0.20;;;19.50;76.90;;;;;;5053706;28;20131;-66
2021/07/04 02:47:57;;;;;;;0.13;0.13;;;19.40;76.80;;;;;;5053396;28;20056;-66
2021/07/04 02:50:24;;;;;;;0.13;0.13;;;19.50;77.00;;;;;;5052652;28;20139;-66
2021/07/04 02:52:51;;;;;;;0.10;0.10;;;19.40;76.80;;;;;;5053579;28;20178;-66
2021/07/04 02:55:19;;;;;;;0.10;0.10;;;19.40;76.90;;;;;;5053386;28;20049;-66
2021/07/04 02:57:46;;;;;;;0.17;0.05;;;19.40;77.00;;;;;;5034970;28;20132;-66
2021/07/04 03:00:17;;;;;;;0.10;0.10;;;19.40;77.00;;;;;;5052977;28;20133;-66
2021/07/04 03:02:43;;;;;;;0.20;0.20;;;19.40;77.10;;;;;;5053635;28;20119;-66
2021/07/04 03:05:14;;;;;;;0.25;0.25;;;19.40;77.10;;;;;;5050123;28;20037;-66
2021/07/04 03:07:47;;;;;;;0.10;0.10;;;19.40;77.10;;;;;;5043655;28;20401;-66
2021/07/04 03:10:23;;;;;;;0.20;0.20;;;19.40;77.10;;;;;;5052627;28;20413;-66
2021/07/04 03:12:58;;;;;;;0.00;0.00;;;19.40;77.30;;;;;;5052769;28;20485;-66
2021/07/04 03:15:34;;;;;;;0.20;0.20;;;19.40;77.30;;;;;;5052289;28;20561;-66
2021/07/04 03:18:09;;;;;;;0.20;0.20;;;19.40;77.40;;;;;;5053256;28;20060;-65
2021/07/04 03:20:43;;;;;;;0.30;0.30;;;19.40;77.40;;;;;;5053130;28;20049;-66
2021/07/04 03:23:18;;;;;;;0.20;0.20;;;19.40;77.40;;;;;;5052713;28;20049;-66
2021/07/04 03:25:53;;;;;;;0.13;0.10;;;19.40;77.50;;;;;;5052434;28;20492;-66
2021/07/04 03:28:28;;;;;;;0.10;0.10;;;19.30;77.60;;;;;;5052469;28;20045;-66
2021/07/04 03:31:02;;;;;;;0.20;0.20;;;19.40;77.70;;;;;;5051715;28;20136;-66
2021/07/04 03:33:32;;;;;;;0.13;0.13;;;19.30;78.10;;;;;;5049587;28;20076;-66
2021/07/04 03:36:01;;;;;;;0.20;0.20;;;19.20;78.70;;;;;;5047865;28;20099;-66
2021/07/04 03:38:31;;;;;;;0.30;0.30;;;19.10;79.20;;;;;;5052632;28;20041;-66
2021/07/04 03:40:59;;;;;;;0.20;0.20;;;19.10;79.40;;;;;;5052559;28;20136;-66
2021/07/04 03:43:27;;;;;;;0.30;0.20;;;19.10;79.30;;;;;;5052670;28;20503;-66
2021/07/04 03:45:55;;;;;;;0.20;0.20;;;19.10;79.10;;;;;;5052544;28;20595;-66
2021/07/04 03:48:24;;;;;;;0.15;0.15;;;19.10;79.30;;;;;;5052144;28;20049;-66
2021/07/04 03:50:53;;;;;;;0.28;0.28;;;19.10;79.30;;;;;;5052286;28;20566;-66
2021/07/04 03:53:21;;;;;;;0.28;0.28;;;19.10;79.10;;;;;;5052295;28;20049;-66
2021/07/04 03:55:48;;;;;;;0.20;0.20;;;19.10;79.30;;;;;;5033861;28;20132;-66
2021/07/04 03:58:14;;;;;;;0.43;0.20;;;19.20;79.10;;;;;;5052168;28;20056;-66
2021/07/04 04:00:40;;;;;;;0.30;0.30;;;19.20;79.10;;;;;;5052261;28;20056;-66
2021/07/04 04:03:07;;;;;;;0.38;0.20;;;19.20;79.20;;;;;;5051946;28;20080;-66
2021/07/04 04:05:33;;;;;;;0.40;0.20;;;19.20;79.10;;;;;;5052430;28;20525;-66
2021/07/04 04:08:00;;;;;;;0.10;0.10;;;19.20;79.20;;;;;;5052192;28;20124;-66
2021/07/04 04:10:26;;;;;;;0.10;0.10;;;19.20;79.20;;;;;;5050014;28;20045;-66
2021/07/04 04:12:52;;;;;;;0.20;0.20;;;19.20;79.20;;;;;;5037265;28;20052;-66
2021/07/04 04:15:19;;;;;;;0.20;0.20;;;19.10;79.40;;;;;;5050250;28;20065;-66
2021/07/04 04:17:45;;;;;;;0.20;0.15;;;19.10;79.80;;;;;;5052187;28;20056;-66
2021/07/04 04:20:12;;;;;;;0.10;0.10;;;19.10;79.90;;;;;;5052028;28;20045;-66
2021/07/04 04:22:38;;;;;;;0.32;0.20;;;19.00;80.00;;;;;;5051865;28;20099;-66
2021/07/04 04:25:05;;;;;;;0.10;0.10;;;19.00;80.10;;;;;;5052031;28;20073;-66
2021/07/04 04:27:31;;;;;;;0.20;0.20;;;19.00;80.00;;;;;;5051616;28;20452;-65
2021/07/04 04:29:58;;;;;;;0.22;0.20;;;19.00;79.90;;;;;;5052183;28;20514;-66
2021/07/04 04:32:24;;;;;;;0.20;0.20;;;19.00;80.10;;;;;;5051689;28;20420;-68
2021/07/04 04:34:51;;;;;;;0.20;0.20;;;19.00;80.30;;;;;;5046385;28;20048;-66
2021/07/04 04:37:17;;;;;;;0.15;0.15;;;19.00;80.50;;;;;;5051703;28;20477;-66
2021/07/04 04:39:43;;;;;;;0.10;0.10;;;19.00;80.60;;;;;;5049892;28;20045;-66
2021/07/04 04:42:10;;;;;;;0.20;0.20;;;19.00;80.70;;;;;;5051539;28;20406;-66
2021/07/04 04:44:36;;;;;;;0.10;0.10;;;19.00;80.90;;;;;;5051751;28;20210;-66
2021/07/04 04:47:04;;;;;;;0.15;0.15;;;19.00;81.00;;;;;;5051732;28;20175;-66
2021/07/04 04:49:31;;;;;;;0.40;0.20;;;18.90;81.30;;;;;;5051598;28;20052;-66
2021/07/04 04:51:57;;;;;;;0.20;0.20;;;18.80;81.80;;;;;;5051950;28;20081;-66
2021/07/04 04:54:24;;;;;;;0.20;0.20;;;18.60;82.60;;;;;;5051518;28;20128;-65
2021/07/04 04:56:50;;;;;;;0.20;0.20;;;18.40;83.70;;;;;;5051646;28;20190;-66
2021/07/04 04:59:16;;;;;;;0.20;0.20;;;18.20;85.10;;;;;;5051937;28;20132;-66
2021/07/04 05:01:43;;;;;;;0.28;0.25;;;18.10;85.70;;;;;;5051586;28;20048;-66
2021/07/04 05:04:09;;;;;;;0.20;0.10;;;18.00;86.30;;;;;;5051797;28;20040;-66
2021/07/04 05:06:36;;;;;;;0.10;0.10;;;18.00;86.90;;;;;;5037874;28;20053;-66
2021/07/04 05:09:04;;;;;;;0.15;0.15;;;17.90;87.20;;;;;;5051284;28;20052;-66
2021/07/04 05:11:30;;;;;;;0.20;0.20;;;17.90;87.30;;;;;;5051592;28;20045;-66
2021/07/04 05:13:56;;;;;;;0.10;0.10;;;17.90;87.20;;;;;;5054413;28;20049;-66
2021/07/04 05:16:23;;;;;;;0.20;0.20;;;17.90;87.40;;;;;;5055287;28;20082;-66
2021/07/04 05:18:49;;;;;;;0.15;0.15;;;17.90;87.60;;;;;;5054949;28;20126;-66
2021/07/04 05:21:15;;;;;;;0.28;0.20;;;17.90;88.20;;;;;;5055288;28;20045;-65
2021/07/04 05:23:42;;;;;;;0.20;0.20;;;17.70;88.70;;;;;;5055085;28;20045;-65
2021/07/04 05:26:08;;;;;;;0.22;0.20;;;17.70;88.80;;;;;;5033326;28;20497;-65
2021/07/04 05:28:35;;;;;;;0.30;0.13;;;17.70;88.70;;;;;;5045784;28;20563;-65
2021/07/04 05:31:01;;;;;;;0.00;0.00;;;17.70;88.40;;;;;;5054622;28;20463;-66
2021/07/04 05:33:27;;;;;;;0.30;0.30;;;17.80;88.20;;;;;;5054715;28;20132;-65
2021/07/04 05:35:54;;;;;;;0.10;0.10;;;18.00;87.40;;;;;;5057244;28;20067;-66
2021/07/04 05:38:22;;;;;;;0.10;0.10;;;18.10;86.80;;;;;;5044007;28;20527;-66
2021/07/04 05:40:50;;;;;;;0.10;0.10;;;18.20;86.50;;;;;;5047474;28;20544;-66
2021/07/04 05:43:17;;;;;;;0.00;0.00;;;18.30;86.10;;;;;;5054530;28;20041;-66
2021/07/04 05:45:44;;;;;;;0.00;0.00;;;18.40;85.50;;;;;;5054101;28;20098;-66
2021/07/04 05:48:11;;;;;;;0.15;0.15;;;18.50;85.30;;;;;;5054558;28;20523;-66
2021/07/04 05:50:37;;;;;;;0.00;0.00;;;18.60;84.90;;;;;;5054208;28;20084;-66
2021/07/04 05:53:03;;;;;;;0.10;0.10;;;18.70;84.40;;;;;;5054583;28;20083;-66
2021/07/04 05:55:30;;;;;;;0.10;0.10;;;18.80;84.20;;;;;;5054497;28;20130;-66
2021/07/04 05:57:56;;;;;;;0.00;0.00;;;18.80;84.00;;;;;;5054623;28;20060;-66
2021/07/04 06:00:23;;;;;;;0.05;0.05;;;18.90;83.70;;;;;;5053815;28;20064;-66
2021/07/04 06:02:49;;;;;;;0.20;0.10;;;18.90;83.30;;;;;;5054376;28;20504;-68
2021/07/04 06:05:17;;;;;;;0.00;0.00;;;19.00;83.20;;;;;;5052838;28;20174;-66
2021/07/04 06:07:45;;;;;;;0.10;0.10;;;19.00;83.00;;;;;;5062609;28;20045;-66
2021/07/04 06:10:12;;;;;;;0.00;0.00;;;19.10;82.90;;;;;;5052403;28;20052;-65
2021/07/04 06:12:39;;;;;;;0.08;0.08;;;19.10;82.60;;;;;;5042991;28;20056;-65
2021/07/04 06:15:07;;;;;;;0.10;0.10;;;19.20;82.30;;;;;;5053650;28;20402;-65
2021/07/04 06:17:33;;;;;;;0.00;0.00;;;19.10;82.10;;;;;;5042043;28;20511;-66
2021/07/04 06:19:59;;;;;;;0.15;0.15;;;19.10;82.30;;;;;;5053969;28;20183;-66
2021/07/04 06:22:26;;;;;;;0.00;0.00;;;19.10;82.30;;;;;;5035748;28;20098;-66
2021/07/04 06:24:52;;;;;;;0.00;0.00;;;19.10;82.10;;;;;;5053755;28;20508;-66
2021/07/04 06:27:18;;;;;;;0.05;0.05;;;19.20;81.80;;;;;;5048248;28;20049;-66
2021/07/04 06:29:45;;;;;;;0.00;0.00;;;19.10;81.90;;;;;;5049263;28;20090;-66
2021/07/04 06:32:11;;;;;;;0.00;0.00;;;19.20;82.10;;;;;;5053104;28;20055;-66
2021/07/04 06:34:37;;;;;;;0.10;0.10;;;19.20;82.10;;;;;;5053565;28;20162;-66
2021/07/04 06:37:04;;;;;;;0.10;0.10;;;19.20;82.20;;;;;;5056555;28;20502;-66
2021/07/04 06:39:30;;;;;;;0.10;0.10;;;19.30;82.40;;;;;;5053226;28;20053;-66
2021/07/04 06:41:57;;;;;;;0.10;0.10;;;19.30;82.00;;;;;;5056808;28;20095;-65
2021/07/04 06:44:23;;;;;;;0.10;0.10;;;19.40;81.50;;;;;;5053658;28;20072;-66
2021/07/04 06:46:49;;;;;;;0.10;0.10;;;19.50;81.30;;;;;;5046410;28;20105;-66
2021/07/04 06:49:15;;;;;;;0.10;0.10;;;19.60;80.80;;;;;;5053893;28;20052;-66
2021/07/04 06:51:42;;;;;;;0.30;0.20;;;19.60;80.50;;;;;;5043348;28;20041;-65
2021/07/04 06:54:08;;;;;;;0.30;0.30;;;19.70;81.20;;;;;;5053207;28;20532;-66
2021/07/04 06:56:34;;;;;;;0.10;0.10;;;19.70;80.20;;;;;;5058183;28;20415;-66
2021/07/04 06:59:01;;;;;;;0.10;0.10;;;19.70;79.70;;;;;;5053404;28;20041;-65
2021/07/04 07:01:27;;;;;;;0.10;0.10;;;19.70;80.00;;;;;;5025248;28;20049;-66
2021/07/04 07:03:54;;;;;;;0.10;0.10;;;19.70;79.50;;;;;;5053272;28;20052;-66
2021/07/04 07:06:20;;;;;;;0.10;0.10;;;19.60;79.90;;;;;;5042949;28;20135;-66
2021/07/04 07:08:47;;;;;;;0.30;0.30;;;19.60;80.10;;;;;;5059876;28;20124;-66
2021/07/04 07:11:14;;;;;;;0.20;0.20;;;19.60;80.30;;;;;;5042858;28;20583;-66
2021/07/04 07:13:40;;;;;;;0.10;0.10;;;19.60;80.20;;;;;;5049807;28;20057;-66
2021/07/04 07:16:06;;;;;;;0.13;0.13;;;19.70;80.20;;;;;;5042549;28;20138;-66
2021/07/04 07:18:33;;;;;;;0.43;0.43;;;19.80;80.10;;;;;;5048250;28;20048;-66
2021/07/04 07:21:00;;;;;;;0.25;0.25;;;19.90;80.10;;;;;;5051592;28;20466;-66
2021/07/04 07:23:27;;;;;;;0.22;0.20;;;19.90;80.00;;;;;;5052488;28;20451;-66
2021/07/04 07:25:55;;;;;;;0.20;0.20;;;19.90;79.70;;;;;;5046643;28;20643;-66
2021/07/04 07:28:22;;;;;;;0.20;0.20;;;19.90;79.50;;;;;;5052509;28;20041;-66
2021/07/04 07:30:49;;;;;;;0.30;0.30;;;19.90;80.40;;;;;;5055980;28;20545;-66
2021/07/04 07:33:16;;;;;;;0.20;0.20;;;20.10;79.30;;;;;;5052794;28;20132;-66
2021/07/04 07:35:43;;;;;;;0.45;0.45;;;20.10;78.60;;;;;;5048795;28;20152;-66
2021/07/04 07:38:10;;;;;;;0.52;0.50;;;20.20;77.90;;;;;;5052352;28;20087;-66
2021/07/04 07:40:37;;;;;;;0.28;0.28;;;20.20;77.50;;;;;;5047682;28;20077;-66
2021/07/04 07:43:05;;;;;;;0.30;0.30;;;20.20;76.90;;;;;;5051254;28;20072;-66
2021/07/04 07:45:32;;;;;;;0.20;0.20;;;20.20;77.30;;;;;;5048301;28;20042;-66
2021/07/04 07:47:58;;;;;;;0.30;0.30;;;20.20;77.20;;;;;;5049074;28;20617;-66
2021/07/04 07:50:25;;;;;;;0.20;0.20;;;20.10;77.50;;;;;;5050752;28;20072;-66
2021/07/04 07:52:51;;;;;;;0.20;0.20;;;20.10;77.50;;;;;;5047710;28;20049;-66
2021/07/04 07:55:18;;;;;;;0.25;0.25;;;20.00;77.90;;;;;;5046573;28;20746;-66
2021/07/04 07:57:44;;;;;;;0.52;0.28;;;19.90;78.50;;;;;;5056314;28;20076;-66
2021/07/04 08:00:13;;;;;;;0.30;0.30;;;19.70;79.40;;;;;;5047007;28;20045;-66
2021/07/04 08:02:41;;;;;;;0.30;0.30;;;19.50;80.30;;;;;;5049579;28;20080;-65
2021/07/04 08:05:08;;;;;;;0.30;0.30;;;19.20;81.50;;;;;;5048803;28;21923;-65
2021/07/04 08:07:36;;;;;;;0.90;0.57;;;19.20;82.30;;;;;;5046231;28;20427;-66
2021/07/04 08:10:05;;;;;;;0.28;0.28;;;19.10;82.80;;;;;;5050896;28;20056;-66
2021/07/04 08:12:32;;;;;;;0.28;0.28;;;19.00;83.10;;;;;;5057159;28;20060;-66
2021/07/04 08:14:58;;;;;;;0.20;0.20;;;18.90;83.10;;;;;;5051323;28;20566;-66
2021/07/04 08:17:24;;;;;;;0.20;0.20;;;18.90;83.60;;;;;;5051115;28;20086;-65
2021/07/04 08:19:51;;;;;;;0.43;0.40;;;18.90;83.20;;;;;;5050697;28;20052;-67
2021/07/04 08:22:17;;;;;;;0.30;0.30;;;19.10;82.90;;;;;;5050198;28;20053;-65
2021/07/04 08:24:43;;;;;;;0.20;0.20;;;19.10;82.60;;;;;;5051380;28;20044;-66
2021/07/04 08:27:09;;;;;;;0.30;0.20;;;19.20;82.50;;;;;;5049640;28;20572;-66
2021/07/04 08:29:36;;;;;;;0.20;0.20;;;19.30;82.20;;;;;;5049363;28;20049;-67
2021/07/04 08:32:02;;;;;;;0.30;0.30;;;19.40;81.80;;;;;;5050723;28;20041;-66
2021/07/04 08:34:29;;;;;;;0.25;0.25;;;19.60;81.60;;;;;;5050676;28;20049;-66
2021/07/04 08:36:55;;;;;;;0.40;0.40;;;19.70;81.30;;;;;;5051273;28;20128;-65
2021/07/04 08:39:21;;;;;;;0.30;0.30;;;20.00;79.50;;;;;;5051258;28;20136;-66
2021/07/04 08:41:48;;;;;;;0.55;0.40;;;20.20;79.20;;;;;;5048096;28;20635;-65
2021/07/04 08:44:14;;;;;;;0.47;0.30;;;20.30;78.00;;;;;;5051256;28;20191;-67
2021/07/04 08:46:42;;;;;;;0.20;0.20;;;20.40;78.70;;;;;;5048727;28;20163;-67
2021/07/04 08:49:10;;;;;;;0.15;0.15;;;20.70;77.70;;;;;;5054742;28;20056;-65
2021/07/04 08:51:36;;;;;;;0.28;0.28;;;21.00;77.10;;;;;;5064503;28;20037;-65
2021/07/04 08:54:03;;;;;;;0.20;0.20;;;21.30;74.80;;;;;;5054942;28;20041;-65
2021/07/04 08:56:29;;;;;;;0.28;0.28;;;21.40;74.50;;;;;;5053530;28;20080;-65
2021/07/04 08:58:55;;;;;;;0.13;0.13;;;21.50;72.20;;;;;;5055503;28;20086;-65
2021/07/04 09:01:24;;;;;;;0.10;0.10;;;21.50;72.20;;;;;;5053512;28;20187;-65
2021/07/04 09:03:55;;;;;;;0.40;0.20;;;21.50;71.60;;;;;;5050877;28;20120;-65
2021/07/04 09:06:43;;;;;;;0.20;0.20;;;21.40;71.50;;;;;;5051849;28;20049;-66
2021/07/04 09:09:18;;;;;;;0.22;0.22;;;21.30;71.50;;;;;;5052223;28;20493;-64
2021/07/04 09:12:03;;;;;;;0.15;0.15;;;21.30;71.70;;;;;;5056986;28;20064;-64
2021/07/04 09:14:48;;;;;;;0.10;0.10;;;21.40;71.30;;;;;;5051366;28;20057;-66
2021/07/04 09:17:17;;;;;;;0.17;0.17;;;21.40;70.90;;;;;;5054673;28;20052;-65
2021/07/04 09:19:59;;;;;;;0.98;0.20;;;21.40;71.00;;;;;;5048413;28;20052;-65
2021/07/04 09:22:35;;;;;;;0.20;0.20;;;21.30;71.00;;;;;;5053938;28;20110;-65
2021/07/04 09:25:16;;;;;;;0.20;0.20;;;21.20;71.50;;;;;;5054174;28;20445;-65
2021/07/04 09:28:08;;;;;;;0.20;0.20;;;21.00;72.30;;;;;;5051234;28;20045;-65
2021/07/04 09:30:45;;;;;;;0.00;0.00;;;20.70;73.00;;;;;;5050046;28;20146;-65
2021/07/04 09:33:16;;;;;;;0.10;0.10;;;20.50;74.00;;;;;;5045865;28;20045;-65
2021/07/04 09:36:03;;;;;;;0.00;0.00;;;20.30;74.50;;;;;;5044519;28;20160;-65
2021/07/04 09:38:48;;;;;;;0.00;0.00;;;20.10;75.30;;;;;;5044165;28;20131;-66
2021/07/04 09:41:15;;;;;;;0.00;0.00;;;20.00;75.90;;;;;;5045829;28;20091;-65
2021/07/04 09:43:42;;;;;;;0.00;0.00;;;20.00;76.60;;;;;;5054031;28;20124;-65
2021/07/04 09:46:11;;;;;;;0.20;0.10;;;20.00;76.60;;;;;;5047544;28;20041;-64
2021/07/04 09:48:51;;;;;;;0.00;0.00;;;20.00;76.30;;;;;;5054178;28;20049;-64
2021/07/04 09:51:22;;;;;;;0.08;0.08;;;20.00;76.20;;;;;;5043827;28;20095;-64
2021/07/04 09:53:50;;;;;;;0.00;0.00;;;20.00;75.80;;;;;;5054591;28;20049;-63
2021/07/04 09:56:31;;;;;;;0.00;0.00;;;20.10;75.30;;;;;;5045152;28;20148;-63
2021/07/04 09:59:01;;;;;;;0.05;0.00;;;20.30;74.40;;;;;;5042990;28;20045;-69
2021/07/04 10:01:40;;;;;;;0.10;0.10;;;20.50;74.00;;;;;;5043019;28;20138;-70
2021/07/04 10:04:27;;;;;;;0.55;0.20;;;20.90;72.10;;;;;;5018207;28;20041;-62
2021/07/04 10:06:56;;;;;;;0.00;0.00;;;21.40;71.70;;;;;;5049956;28;20045;-62
2021/07/04 10:09:26;;;;;;;0.10;0.03;;;21.80;70.10;;;;;;5043225;28;20049;-64
2021/07/04 10:11:53;;;;;;;0.10;0.10;;;22.10;69.00;;;;;;5052397;28;20045;-62
2021/07/04 10:14:20;;;;;;;0.00;0.00;;;22.30;68.10;;;;;;5053400;28;20063;-63
2021/07/04 10:16:47;;;;;;;;;;;22.40;64.20;;;;;;5053903;28;20048;-68
2021/07/04 10:19:20;;;;;;;;;;;22.40;65.10;;;;;;5051828;28;19931;-68
2021/07/04 10:21:49;;;;;;;;;;;22.20;64.40;;;;;;5045613;28;20054;-67
2021/07/04 10:24:15;;;;;;;;;;;22.10;64.20;;;;;;5045428;28;20007;-70
2021/07/04 10:26:42;;;;;;;;;;;22.10;63.60;;;;;;5048325;28;20665;-68
2021/07/04 10:29:10;;;;;;;;;;;22.10;63.60;;;;;;5053854;28;19936;-68
2021/07/04 10:31:37;;;;;;;;;;;21.90;63.80;;;;;;5059363;28;20396;-67
2021/07/04 10:34:09;;;;;;;;;;;21.90;64.70;;;;;;5054224;28;19990;-68
2021/07/04 10:36:54;;;;;;;;;;;21.90;62.90;;;;;;5051197;28;20299;-68
2021/07/04 10:39:30;;;;;;;;;;;21.70;63.90;;;;;;5052703;28;20859;-68
2021/07/04 10:42:00;;;;;;;;;;;21.60;64.30;;;;;;5049514;28;19932;-68
2021/07/04 10:44:45;;;;;;;;;;;21.40;64.90;;;;;;5052908;28;19921;-70
2021/07/04 10:47:23;;;;;;;;;;;21.30;64.80;;;;;;5052020;28;20011;-69
2021/07/04 10:49:49;;;;;;;;;;;21.30;65.70;;;;;;5053851;28;19929;-78
2021/07/04 10:52:17;;;;;;;;;;;21.40;64.70;;;;;;5039396;28;19928;-74
2021/07/04 10:54:44;;;;;;;;;;;21.40;64.00;;;;;;5053399;28;20074;-76
2021/07/04 10:57:21;;;;;;;;;;;21.40;64.50;;;;;;5054765;28;20007;-68
2021/07/04 10:59:50;;;;;;;;;;;21.40;62.00;;;;;;5035685;28;19925;-68
2021/07/04 11:02:36;;;;;;;;;;;21.20;61.00;;;;;;5045993;28;19928;-71
2021/07/04 11:05:06;;;;;;;;;;;21.10;62.30;;;;;;5047613;28;19932;-71
2021/07/04 11:07:51;;;;;;;;;;;21.20;61.10;;;;;;5034824;28;20287;-70
2021/07/04 11:10:19;;;;;;;;;;;21.30;61.70;;;;;;5029273;28;19925;-71
2021/07/04 11:12:46;;;;;;;;;;;21.50;59.70;;;;;;5043822;28;20539;-68
2021/07/04 11:15:15;;;;;;;;;;;21.60;61.10;;;;;;5048454;28;19947;-68
2021/07/04 11:18:00;;;;;;;;;;;21.70;60.00;;;;;;5041643;28;20315;-68
2021/07/04 11:20:30;;;;;;;;;;;21.80;59.80;;;;;;5032127;28;19978;-73
2021/07/04 11:23:04;;;;;;;;;;;21.90;57.60;;;;;;5050019;28;20419;-74
2021/07/04 11:25:42;;;;;;;;;;;21.90;57.60;;;;;;5050884;28;19925;-75
2021/07/04 11:28:20;;;;;;;;;;;22.00;56.70;;;;;;5045340;28;19924;-78
2021/07/04 11:30:50;;;;;;;;;;;21.90;56.80;;;;;;5037391;28;20015;-75
2021/07/04 11:33:28;;;;;;;;;;;21.90;57.10;;;;;;5050907;28;20039;-74
2021/07/04 11:35:56;;;;;;;;;;;21.80;58.90;;;;;;5053511;28;19924;-75
2021/07/04 11:38:23;;;;;;;;;;;21.80;58.90;;;;;;5056521;28;19924;-74
2021/07/04 11:40:50;;;;;;;;;;;21.80;58.70;;;;;;5042625;28;20008;-74
2021/07/04 11:43:17;;;;;;;;;;;21.80;59.20;;;;;;5047240;28;21315;-76
2021/07/04 11:45:57;;;;;;;;;;;21.90;57.80;;;;;;5043699;28;20547;-69
2021/07/04 11:48:42;;;;;;;;;;;21.90;57.10;;;;;;5038200;28;19995;-67
2021/07/04 11:51:08;;;;;;;;;;;21.80;56.30;;;;;;5039187;28;19925;-65
2021/07/04 11:53:48;;;;;;;;;;;21.60;56.70;;;;;;5048196;28;19929;-66
2021/07/04 11:56:15;;;;;;;;;;;21.50;57.40;;;;;;5037271;28;19991;-66
2021/07/04 11:58:41;;;;;;;;;;;21.50;57.80;;;;;;5047702;28;19925;-67
2021/07/04 12:01:18;;;;;;;;;;;21.50;58.90;;;;;;5048114;28;19943;-67
2021/07/04 12:03:52;;;;;;;;;;;21.60;58.20;;;;;;5048235;28;20427;-68
2021/07/04 12:06:18;;;;;;;;;;;21.60;58.30;;;;;;5040685;28;19932;-69
2021/07/04 12:08:57;;;;;;;;;;;21.80;58.20;;;;;;5043630;28;19929;-68
2021/07/04 12:11:39;;;;;;;;;;;21.90;58.30;;;;;;5044286;28;19986;-67
2021/07/04 12:14:25;;;;;;;;;;;22.00;56.60;;;;;;5039913;28;20331;-67
2021/07/04 12:16:55;;;;;;;;;;;22.00;57.40;;;;;;5035165;28;19925;-67
2021/07/04 12:19:26;;;;;;;;;;;22.00;57.00;;;;;;5043520;28;19932;-68
2021/07/04 12:21:52;;;;;;;;;;;22.00;56.90;;;;;;5043155;28;20403;-70
2021/07/04 12:24:30;;;;;;;;;;;22.00;56.70;;;;;;5033713;28;20289;-67
2021/07/04 12:26:56;;;;;;;;;;;21.90;58.10;;;;;;5057066;28;19932;-68
2021/07/04 12:29:22;;;;;;;;;;;22.00;58.60;;;;;;5048930;28;19947;-68
2021/07/04 12:31:57;;;;;;;;;;;22.10;58.50;;;;;;5045537;28;19967;-68
2021/07/04 12:34:23;;;;;;;;;;;22.20;59.20;;;;;;5040354;28;20422;-67
2021/07/04 12:36:49;;;;;;;;;;;22.30;57.80;;;;;;5050332;28;20003;-68
2021/07/04 12:39:16;;;;;;;;;;;22.40;57.50;;;;;;5044729;28;19929;-68
2021/07/04 12:41:42;;;;;;;;;;;22.40;57.50;;;;;;5044037;28;20015;-68
2021/07/04 12:44:12;;;;;;;;;;;22.40;56.30;;;;;;5044919;28;19936;-66
2021/07/04 12:46:39;;;;;;;;;;;22.50;54.50;;;;;;5050716;28;20037;-67
2021/07/04 12:49:11;;;;;;;;;;;22.50;54.60;;;;;;5050460;28;19936;-68
2021/07/04 12:51:38;;;;;;;;;;;22.50;54.40;;;;;;5041059;28;20009;-68
2021/07/04 12:54:14;;;;;;;;;;;22.50;54.50;;;;;;5045699;28;20015;-68
2021/07/04 12:56:43;;;;;;;;;;;22.50;54.90;;;;;;5047961;28;19931;-70
2021/07/04 12:59:09;;;;;;;;;;;22.40;53.80;;;;;;5046623;28;20012;-70
2021/07/04 13:01:36;;;;;;;;;;;22.30;54.00;;;;;;5046074;28;19935;-68
2021/07/04 13:04:02;;;;;;;;;;;22.20;54.70;;;;;;5054885;28;19932;-68
2021/07/04 13:07:21;;;;;;;;;;;22.20;54.20;;;;;;5041670;28;19968;-69
2021/07/04 13:09:39;;;;;;;;;;;22.20;55.50;;;;;;5051252;28;19933;-69
2021/07/04 13:12:10;;;;;;;;;;;22.20;56.10;;;;;;5054380;28;20297;-69
2021/07/04 13:14:41;;;;;;;;;;;22.20;55.50;;;;;;5054372;28;19928;-68